Terminal Aerodrome Forecast
Issued by NWS Sioux Falls, SD

Home | Current Version | Previous Version | Text Only | Print | Product List | Glossary On
Versions: 1 2 3 4 5 6 7 8 9 10 11 12 13 14 15 16 17 18 19 20
000
FTUS43 KFSD 252327
TAFFSD
TAF
KFSD 252327Z 2600/2624 VRB03KT P6SM SKC
     FM260700 11007KT P6SM SKC
     FM261400 13014G20KT P6SM FEW035
     FM261600 14015G22KT P6SM BKN025
     FM262300 16011KT P6SM SCT025=

USA.gov is the U.S. government's official web portal to all federal, state and local government web resources and services.